Time;durP1;ratioP1;P1;durP2;ratioP2;P2;SDS_P1;SDS_P2;PMS_P1;PMS_P2;Temp;Humidity;BMP_temperature;BMP_pressure;BME280_temperature;BME280_humidity;BME280_pressure;Samples;Min_cycle;Max_cycle;Signal;HPM_P1;HPM_P2
2023/11/01 00:00:59;;;;;;;1.35;0.40;;;11.80;99.90;;;;;;4991390;28;20125;-67
2023/11/01 00:03:26;;;;;;;0.22;0.22;;;11.80;99.90;;;;;;4991352;28;20054;-68
2023/11/01 00:05:52;;;;;;;0.75;0.40;;;11.80;99.90;;;;;;5000587;28;20050;-70
2023/11/01 00:08:19;;;;;;;0.65;0.30;;;11.80;99.90;;;;;;4998880;28;20049;-66
2023/11/01 00:10:46;;;;;;;2.78;0.30;;;11.80;99.90;;;;;;4999810;28;20052;-68
2023/11/01 00:13:13;;;;;;;0.77;0.30;;;11.80;99.90;;;;;;4992103;28;20054;-67
2023/11/01 00:15:40;;;;;;;0.30;0.20;;;11.80;99.90;;;;;;4999282;28;20050;-67
2023/11/01 00:18:07;;;;;;;0.55;0.30;;;11.80;99.90;;;;;;4990806;28;20100;-67
2023/11/01 00:20:34;;;;;;;0.25;0.20;;;11.80;99.90;;;;;;5007020;28;20100;-67
2023/11/01 00:23:00;;;;;;;1.05;0.40;;;11.80;99.90;;;;;;4995399;28;20054;-66
2023/11/01 00:25:27;;;;;;;0.35;0.25;;;11.90;99.90;;;;;;4999856;28;20093;-68
2023/11/01 00:27:54;;;;;;;0.55;0.30;;;11.90;99.90;;;;;;4989990;28;20046;-67
2023/11/01 00:30:21;;;;;;;0.52;0.30;;;11.90;99.90;;;;;;4988096;28;20055;-68
2023/11/01 00:32:48;;;;;;;1.05;0.50;;;11.90;99.90;;;;;;4986215;28;20042;-67
2023/11/01 00:35:15;;;;;;;0.57;0.50;;;11.90;99.90;;;;;;4994023;28;20054;-67
2023/11/01 00:37:42;;;;;;;0.20;0.20;;;11.90;99.90;;;;;;4997358;28;20624;-68
2023/11/01 00:40:09;;;;;;;1.13;0.68;;;11.90;99.90;;;;;;4994482;28;20336;-66
2023/11/01 00:42:38;;;;;;;4.00;0.63;;;12.00;99.90;;;;;;4996951;28;20441;-67
2023/11/01 00:45:05;;;;;;;0.85;0.50;;;11.90;99.90;;;;;;4979516;28;20093;-68
2023/11/01 00:47:32;;;;;;;0.82;0.50;;;12.00;99.90;;;;;;5000860;28;20054;-68
2023/11/01 00:49:59;;;;;;;2.75;1.00;;;12.00;99.90;;;;;;4991692;28;20108;-67
2023/11/01 00:52:26;;;;;;;1.65;0.50;;;12.00;99.90;;;;;;5002803;28;20108;-67
2023/11/01 00:54:53;;;;;;;5.00;1.10;;;12.00;99.90;;;;;;4998492;28;20129;-67
2023/11/01 00:57:19;;;;;;;1.83;0.57;;;12.00;99.90;;;;;;4991129;28;20078;-68
2023/11/01 00:59:46;;;;;;;1.10;0.60;;;12.00;99.90;;;;;;4990802;28;20060;-66
2023/11/01 01:02:13;;;;;;;4.30;0.90;;;12.10;99.90;;;;;;4995228;28;20477;-67
2023/11/01 01:04:45;;;;;;;3.50;0.68;;;11.90;99.90;;;;;;4997411;28;20058;-67
2023/11/01 01:07:12;;;;;;;3.45;0.50;;;12.10;99.90;;;;;;4994154;28;20042;-67
2023/11/01 01:09:39;;;;;;;9.52;1.10;;;12.10;99.90;;;;;;4988263;28;20061;-67
2023/11/01 01:12:06;;;;;;;3.30;1.15;;;12.10;99.90;;;;;;4990811;28;20116;-65
2023/11/01 01:14:33;;;;;;;6.13;0.70;;;12.10;99.90;;;;;;4989678;28;20108;-67
2023/11/01 01:17:00;;;;;;;8.48;2.10;;;12.10;99.90;;;;;;4989688;28;20050;-66
2023/11/01 01:19:27;;;;;;;7.32;1.00;;;12.10;99.90;;;;;;4993735;28;20088;-67
2023/11/01 01:21:54;;;;;;;7.15;1.20;;;12.10;99.90;;;;;;4994836;28;20425;-66
2023/11/01 01:24:21;;;;;;;5.68;1.45;;;12.20;99.90;;;;;;5003112;28;20138;-66
2023/11/01 01:26:47;;;;;;;5.93;1.02;;;12.10;99.90;;;;;;4995720;28;20085;-67
2023/11/01 01:29:14;;;;;;;13.45;1.70;;;12.20;99.90;;;;;;5001796;28;20489;-67
2023/11/01 01:31:41;;;;;;;16.40;1.85;;;12.20;99.90;;;;;;4994103;28;20061;-67
2023/11/01 01:34:08;;;;;;;7.40;1.52;;;12.30;99.90;;;;;;4645969;28;10000152;-68
2023/11/01 01:36:35;;;;;;;8.40;2.15;;;12.30;99.90;;;;;;4987775;28;20050;-67
2023/11/01 01:39:02;;;;;;;22.42;4.72;;;12.30;99.90;;;;;;5002542;28;20054;-66
2023/11/01 01:41:29;;;;;;;12.73;1.95;;;12.40;99.90;;;;;;4992909;28;20126;-67
2023/11/01 01:43:56;;;;;;;11.95;2.10;;;12.40;99.90;;;;;;4999771;28;20052;-67
2023/11/01 01:46:22;;;;;;;12.07;1.77;;;12.40;99.90;;;;;;4999546;28;20508;-66
2023/11/01 01:48:49;;;;;;;22.20;5.28;;;12.50;99.90;;;;;;4986873;28;20069;-66
2023/11/01 01:51:16;;;;;;;11.07;1.90;;;12.50;99.90;;;;;;4998471;28;20048;-68
2023/11/01 01:53:45;;;;;;;9.93;1.90;;;12.50;99.90;;;;;;4995378;28;20114;-67
2023/11/01 01:56:12;;;;;;;11.55;2.67;;;12.60;99.90;;;;;;5001383;28;20109;-67
2023/11/01 01:58:39;;;;;;;14.57;2.17;;;12.60;99.90;;;;;;4996344;28;20135;-68
2023/11/01 02:01:06;;;;;;;16.48;2.58;;;12.60;99.90;;;;;;4999986;28;20497;-67
2023/11/01 02:03:34;;;;;;;14.00;2.38;;;12.60;99.90;;;;;;4979742;28;20050;-66
2023/11/01 02:06:02;;;;;;;23.02;3.67;;;12.60;99.90;;;;;;5002000;28;20057;-67
2023/11/01 02:08:29;;;;;;;13.20;2.92;;;12.60;99.90;;;;;;4992573;28;20065;-66
2023/11/01 02:10:56;;;;;;;18.25;2.95;;;12.70;99.90;;;;;;5000934;28;20057;-68
2023/11/01 02:13:23;;;;;;;23.00;2.92;;;12.70;99.90;;;;;;4994880;28;20042;-67
2023/11/01 02:15:49;;;;;;;17.65;3.72;;;12.70;99.90;;;;;;4988774;28;20482;-67
2023/11/01 02:18:16;;;;;;;18.80;3.03;;;12.80;99.90;;;;;;5000420;28;20038;-68
2023/11/01 02:20:47;;;;;;;26.95;3.10;;;12.80;99.90;;;;;;5008957;28;20057;-66
2023/11/01 02:23:15;;;;;;;24.15;3.95;;;12.90;99.90;;;;;;4999537;28;20101;-66
2023/11/01 02:25:42;;;;;;;20.65;3.28;;;12.90;99.90;;;;;;4997923;28;20050;-67
2023/11/01 02:28:10;;;;;;;19.90;2.70;;;13.00;99.90;;;;;;4997248;28;20112;-67
2023/11/01 02:30:38;;;;;;;19.35;2.47;;;13.00;99.90;;;;;;5010097;28;20058;-67
2023/11/01 02:33:04;;;;;;;26.70;4.20;;;13.00;99.90;;;;;;5001941;28;20417;-67
2023/11/01 02:35:31;;;;;;;21.63;3.50;;;13.00;99.90;;;;;;5003328;28;20143;-67
2023/11/01 02:37:58;;;;;;;17.67;2.63;;;13.10;99.90;;;;;;4998953;28;20105;-67
2023/11/01 02:40:25;;;;;;;21.13;3.05;;;13.10;99.90;;;;;;4992592;28;20260;-67
2023/11/01 02:42:53;;;;;;;19.50;3.45;;;13.10;99.90;;;;;;4997208;28;20097;-67
2023/11/01 02:45:20;;;;;;;25.60;4.18;;;13.10;99.90;;;;;;4994148;28;20124;-67
2023/11/01 02:47:48;;;;;;;19.40;3.65;;;13.10;99.90;;;;;;4991103;28;20097;-66
2023/11/01 02:50:16;;;;;;;27.15;3.25;;;13.20;99.90;;;;;;5001245;28;20466;-67
2023/11/01 02:52:43;;;;;;;27.98;3.70;;;13.20;99.90;;;;;;4991972;28;20042;-66
2023/11/01 02:55:10;;;;;;;20.52;4.05;;;13.20;99.90;;;;;;4996446;28;20049;-67
2023/11/01 02:57:38;;;;;;;21.38;3.20;;;13.10;99.90;;;;;;5005362;28;20097;-67
2023/11/01 03:00:08;;;;;;;19.25;3.72;;;13.20;99.90;;;;;;4999862;28;20127;-66
2023/11/01 03:02:35;;;;;;;18.00;3.70;;;13.20;99.90;;;;;;4988606;28;20050;-66
2023/11/01 03:05:03;;;;;;;18.13;3.50;;;13.20;99.90;;;;;;4999101;28;20084;-67
2023/11/01 03:07:30;;;;;;;30.42;3.38;;;13.30;99.90;;;;;;4981565;28;20046;-67
2023/11/01 03:09:56;;;;;;;17.98;2.70;;;13.30;99.90;;;;;;4998843;28;20092;-67
2023/11/01 03:12:23;;;;;;;18.77;2.97;;;13.30;99.90;;;;;;5006278;28;20041;-66
2023/11/01 03:14:50;;;;;;;17.10;3.47;;;13.30;99.90;;;;;;4994730;28;20051;-66
2023/11/01 03:17:17;;;;;;;19.10;3.35;;;13.30;99.90;;;;;;4990901;28;20124;-66
2023/11/01 03:19:45;;;;;;;14.80;3.20;;;13.30;99.90;;;;;;4991321;28;20101;-68
2023/11/01 03:22:11;;;;;;;14.25;3.00;;;13.40;99.90;;;;;;4992189;28;20113;-67
2023/11/01 03:24:38;;;;;;;16.02;2.47;;;13.30;99.90;;;;;;4994343;28;20050;-66
2023/11/01 03:27:05;;;;;;;13.35;2.03;;;13.30;99.90;;;;;;4993619;28;20050;-67
2023/11/01 03:29:32;;;;;;;11.25;2.10;;;13.30;99.90;;;;;;4992746;28;20078;-66
2023/11/01 03:31:59;;;;;;;9.68;1.73;;;13.30;99.90;;;;;;5001013;28;20049;-67
2023/11/01 03:34:25;;;;;;;7.32;2.00;;;13.30;99.90;;;;;;4997671;28;20571;-66
2023/11/01 03:36:53;;;;;;;6.40;1.30;;;13.40;99.90;;;;;;5002753;28;20120;-67
2023/11/01 03:39:20;;;;;;;15.60;3.83;;;13.40;99.90;;;;;;4994045;28;20058;-66
2023/11/01 03:41:46;;;;;;;10.18;1.60;;;13.30;99.90;;;;;;4987988;28;20481;-67
2023/11/01 03:44:13;;;;;;;7.53;1.23;;;13.30;99.90;;;;;;5000716;28;20499;-67
2023/11/01 03:46:40;;;;;;;7.28;1.38;;;13.30;99.90;;;;;;4997316;28;20053;-68
2023/11/01 03:49:07;;;;;;;7.63;1.63;;;13.40;99.90;;;;;;4990948;28;20243;-66
2023/11/01 03:51:34;;;;;;;5.45;1.02;;;13.30;99.90;;;;;;5001373;28;20057;-67
2023/11/01 03:54:01;;;;;;;8.23;1.33;;;13.30;99.90;;;;;;4991181;28;20082;-68
2023/11/01 03:56:28;;;;;;;13.40;1.75;;;13.30;99.90;;;;;;4990866;28;20061;-68
2023/11/01 03:58:54;;;;;;;6.57;1.10;;;13.30;99.90;;;;;;4993373;28;20053;-68
2023/11/01 04:01:21;;;;;;;6.70;0.90;;;13.30;99.90;;;;;;5000387;28;20050;-68
2023/11/01 04:03:48;;;;;;;9.85;1.20;;;13.20;99.90;;;;;;4991207;28;20050;-68
2023/11/01 04:06:15;;;;;;;8.48;1.45;;;13.20;99.90;;;;;;4993572;28;20050;-68
2023/11/01 04:08:42;;;;;;;5.28;1.58;;;13.20;99.90;;;;;;4998018;28;20054;-68
2023/11/01 04:11:09;;;;;;;9.90;1.23;;;13.10;99.90;;;;;;4993829;28;20050;-69
2023/11/01 04:13:36;;;;;;;11.40;2.20;;;13.10;99.90;;;;;;4992808;28;20050;-68
2023/11/01 04:16:03;;;;;;;13.50;1.77;;;13.10;99.90;;;;;;4997975;28;20049;-67
2023/11/01 04:18:34;;;;;;;11.98;2.17;;;13.10;99.90;;;;;;4997472;28;20492;-68
2023/11/01 04:21:01;;;;;;;15.60;2.55;;;13.10;99.90;;;;;;4998195;28;20926;-69
2023/11/01 04:23:28;;;;;;;12.25;2.72;;;13.10;99.90;;;;;;5000839;28;20097;-68
2023/11/01 04:25:55;;;;;;;14.02;2.58;;;13.10;99.90;;;;;;4996443;28;20061;-67
2023/11/01 04:28:23;;;;;;;15.52;2.53;;;13.00;99.90;;;;;;4986029;28;20050;-67
2023/11/01 04:30:51;;;;;;;11.43;2.67;;;13.00;99.90;;;;;;4992566;28;20046;-68
2023/11/01 04:33:18;;;;;;;13.70;2.83;;;13.00;99.90;;;;;;5001264;28;20061;-67
2023/11/01 04:35:44;;;;;;;13.65;2.35;;;13.00;99.90;;;;;;4991530;28;20061;-67
2023/11/01 04:38:11;;;;;;;11.02;2.53;;;13.00;99.90;;;;;;4995855;28;20046;-67
2023/11/01 04:40:38;;;;;;;16.92;3.92;;;13.00;99.90;;;;;;4979187;28;20496;-67
2023/11/01 04:43:05;;;;;;;11.10;2.28;;;13.00;99.90;;;;;;4991146;28;20050;-67
2023/11/01 04:45:32;;;;;;;21.00;3.05;;;13.00;99.90;;;;;;4999999;28;20161;-66
2023/11/01 04:47:59;;;;;;;32.40;2.35;;;13.00;99.90;;;;;;4999147;28;20041;-67
2023/11/01 04:50:27;;;;;;;22.05;2.40;;;13.00;99.90;;;;;;4992365;28;20054;-67
2023/11/01 04:52:54;;;;;;;12.30;2.63;;;12.90;99.90;;;;;;4995807;28;20042;-66
2023/11/01 04:55:21;;;;;;;11.88;3.17;;;13.00;99.90;;;;;;5001465;28;20550;-67
2023/11/01 04:57:48;;;;;;;13.45;2.20;;;12.90;99.90;;;;;;4997662;28;20042;-66
2023/11/01 05:00:18;;;;;;;19.25;3.65;;;12.90;99.90;;;;;;4997681;28;20284;-68
2023/11/01 05:02:48;;;;;;;19.00;3.28;;;12.90;99.90;;;;;;4993949;28;20540;-67
2023/11/01 05:05:16;;;;;;;23.67;3.38;;;12.90;99.90;;;;;;4998292;28;20058;-68
2023/11/01 05:07:43;;;;;;;17.48;2.25;;;12.90;99.90;;;;;;4992684;28;20450;-66
2023/11/01 05:10:10;;;;;;;16.25;2.60;;;12.90;99.90;;;;;;4988302;28;20054;-67
2023/11/01 05:12:37;;;;;;;25.00;3.78;;;12.90;99.90;;;;;;4992541;28;20120;-67
2023/11/01 05:15:04;;;;;;;11.35;2.20;;;12.90;99.90;;;;;;4998000;28;20453;-67
2023/11/01 05:17:31;;;;;;;16.40;2.33;;;12.90;99.90;;;;;;4989655;28;20078;-66
2023/11/01 05:19:58;;;;;;;15.60;2.35;;;12.90;99.90;;;;;;4993709;28;20505;-67
2023/11/01 05:22:25;;;;;;;20.98;2.40;;;12.90;99.90;;;;;;4992585;28;20080;-64
2023/11/01 05:24:52;;;;;;;10.93;2.25;;;12.90;99.90;;;;;;4994207;28;20298;-66
2023/11/01 05:27:19;;;;;;;20.45;4.47;;;12.90;99.90;;;;;;4994535;28;20396;-66
2023/11/01 05:29:47;;;;;;;20.00;3.63;;;13.00;99.90;;;;;;4987729;28;20101;-67
2023/11/01 05:32:13;;;;;;;11.45;2.22;;;13.00;99.90;;;;;;4993465;28;20049;-66
2023/11/01 05:34:40;;;;;;;12.95;3.10;;;13.00;99.90;;;;;;4999263;28;20037;-67
2023/11/01 05:37:09;;;;;;;22.90;5.07;;;13.00;99.90;;;;;;4993162;28;20100;-66
2023/11/01 05:39:37;;;;;;;25.38;4.68;;;13.00;99.90;;;;;;4995001;28;20057;-65
2023/11/01 05:42:04;;;;;;;16.45;2.97;;;13.00;99.90;;;;;;5003381;28;20080;-65
2023/11/01 05:44:30;;;;;;;21.50;3.30;;;13.10;99.90;;;;;;4995953;28;20077;-66
2023/11/01 05:46:58;;;;;;;12.75;2.47;;;13.10;99.90;;;;;;4989790;28;20078;-66
2023/11/01 05:49:24;;;;;;;24.95;3.95;;;13.10;99.90;;;;;;4994558;28;20080;-66
2023/11/01 05:51:51;;;;;;;23.02;3.83;;;13.20;99.90;;;;;;5001691;28;20054;-66
2023/11/01 05:54:18;;;;;;;14.60;2.58;;;13.20;99.90;;;;;;5005580;28;20162;-66
2023/11/01 05:56:44;;;;;;;16.65;2.95;;;13.20;99.90;;;;;;5003276;28;20300;-67
2023/11/01 05:59:11;;;;;;;10.93;2.63;;;13.30;99.90;;;;;;4999669;28;20046;-65
2023/11/01 06:01:38;;;;;;;14.10;3.88;;;13.30;99.90;;;;;;5003022;28;20046;-66
2023/11/01 06:04:05;;;;;;;11.85;2.05;;;13.30;99.90;;;;;;4998283;28;20061;-66
2023/11/01 06:06:32;;;;;;;15.77;2.17;;;13.40;99.90;;;;;;4993158;28;20170;-66
2023/11/01 06:08:59;;;;;;;17.67;3.00;;;13.30;99.90;;;;;;4989493;28;20525;-66
2023/11/01 06:11:25;;;;;;;11.50;2.47;;;13.30;99.90;;;;;;4985840;28;20054;-65
2023/11/01 06:13:52;;;;;;;12.40;2.15;;;13.30;99.90;;;;;;4994441;28;20042;-66
2023/11/01 06:16:20;;;;;;;15.00;2.25;;;13.30;99.90;;;;;;4991312;28;20084;-66
2023/11/01 06:18:47;;;;;;;17.48;2.55;;;13.30;99.90;;;;;;4987832;28;20042;-66
2023/11/01 06:21:14;;;;;;;12.48;2.08;;;13.40;99.90;;;;;;4994561;28;20053;-65
2023/11/01 06:23:41;;;;;;;16.50;2.42;;;13.40;99.90;;;;;;4995995;28;20046;-65
2023/11/01 06:26:08;;;;;;;20.83;5.03;;;13.50;99.90;;;;;;4998327;28;20108;-67
2023/11/01 06:28:35;;;;;;;16.52;2.78;;;13.40;99.90;;;;;;4991421;28;20329;-66
2023/11/01 06:31:01;;;;;;;17.25;2.53;;;13.40;99.90;;;;;;5001314;28;20054;-65
2023/11/01 06:33:28;;;;;;;19.35;4.88;;;13.40;99.90;;;;;;5002173;28;20572;-66
2023/11/01 06:35:55;;;;;;;16.13;3.03;;;13.50;99.90;;;;;;5003602;28;20126;-66
2023/11/01 06:38:22;;;;;;;19.70;3.25;;;13.50;99.90;;;;;;5001131;28;20046;-65
2023/11/01 06:40:49;;;;;;;25.17;3.92;;;13.50;99.90;;;;;;4991674;28;20057;-66
2023/11/01 06:43:15;;;;;;;17.60;4.60;;;13.50;99.90;;;;;;4996262;28;20054;-66
2023/11/01 06:45:42;;;;;;;28.05;4.47;;;13.50;99.90;;;;;;5002052;28;20498;-66
2023/11/01 06:48:11;;;;;;;22.05;3.35;;;13.40;99.90;;;;;;4983138;28;20050;-65
2023/11/01 06:50:40;;;;;;;15.63;2.60;;;13.40;99.90;;;;;;4989092;28;20196;-66
2023/11/01 06:53:07;;;;;;;18.35;2.85;;;13.40;99.90;;;;;;5002424;28;20064;-66
2023/11/01 06:55:34;;;;;;;19.75;2.50;;;13.40;99.90;;;;;;4993574;28;20041;-66
2023/11/01 06:58:01;;;;;;;18.00;3.08;;;13.40;99.90;;;;;;5005550;28;20042;-67
2023/11/01 07:00:28;;;;;;;20.33;3.17;;;13.40;99.90;;;;;;4999514;28;20405;-68
2023/11/01 07:02:54;;;;;;;18.15;2.90;;;13.30;99.90;;;;;;4997312;28;20046;-68
2023/11/01 07:05:21;;;;;;;20.05;2.50;;;13.30;99.90;;;;;;4990185;28;20390;-66
2023/11/01 07:07:48;;;;;;;17.33;2.85;;;13.30;99.90;;;;;;4995795;28;20038;-68
2023/11/01 07:10:16;;;;;;;11.95;3.67;;;13.30;99.90;;;;;;5003305;28;20050;-63
2023/11/01 07:12:43;;;;;;;18.02;3.58;;;13.30;99.90;;;;;;4993970;28;20274;-68
2023/11/01 07:15:13;;;;;;;15.27;3.00;;;13.30;99.90;;;;;;5008742;28;20049;-68
2023/11/01 07:17:40;;;;;;;31.05;4.63;;;13.30;99.90;;;;;;4994226;28;20051;-67
2023/11/01 07:20:08;;;;;;;14.93;3.50;;;13.30;99.90;;;;;;4995368;28;20046;-67
2023/11/01 07:22:34;;;;;;;15.73;2.90;;;13.30;99.90;;;;;;4994877;28;20074;-68
2023/11/01 07:25:01;;;;;;;20.40;2.63;;;13.30;99.90;;;;;;4989281;28;20131;-70
2023/11/01 07:27:28;;;;;;;11.43;2.30;;;13.20;99.90;;;;;;4993903;28;20050;-68
2023/11/01 07:29:55;;;;;;;16.50;2.45;;;13.20;99.90;;;;;;4996393;28;20054;-68
2023/11/01 07:32:22;;;;;;;15.02;2.72;;;13.20;99.90;;;;;;4992766;28;20054;-69
2023/11/01 07:34:49;;;;;;;16.48;2.60;;;13.20;99.90;;;;;;5001345;28;20112;-69
2023/11/01 07:37:16;;;;;;;16.80;2.67;;;13.10;99.90;;;;;;4996386;28;20050;-70
2023/11/01 07:39:43;;;;;;;19.38;3.08;;;13.10;99.90;;;;;;4996404;28;20099;-69
2023/11/01 07:42:10;;;;;;;23.02;3.35;;;13.00;99.90;;;;;;4999019;28;20075;-67
2023/11/01 07:44:37;;;;;;;10.10;2.03;;;13.00;99.90;;;;;;4991805;28;20054;-67
2023/11/01 07:47:04;;;;;;;9.38;1.67;;;12.90;99.90;;;;;;4996386;28;20070;-67
2023/11/01 07:49:30;;;;;;;14.32;2.05;;;12.90;99.90;;;;;;4992984;28;20121;-66
2023/11/01 07:51:57;;;;;;;8.43;1.85;;;12.80;99.90;;;;;;4650181;28;10000239;-67
2023/11/01 07:54:24;;;;;;;10.98;2.17;;;12.70;99.90;;;;;;4985175;28;20061;-67
2023/11/01 07:56:51;;;;;;;7.32;2.03;;;12.70;99.90;;;;;;4991368;28;20054;-67
2023/11/01 07:59:18;;;;;;;12.50;3.45;;;12.70;99.90;;;;;;4988233;28;20056;-67
2023/11/01 08:01:45;;;;;;;15.15;2.45;;;12.70;99.90;;;;;;4984343;28;20108;-67
2023/11/01 08:04:12;;;;;;;12.90;2.35;;;12.70;99.90;;;;;;4986848;28;20049;-68
2023/11/01 08:06:40;;;;;;;10.45;1.63;;;12.70;99.90;;;;;;4990231;28;20125;-67
2023/11/01 08:09:06;;;;;;;16.23;1.95;;;12.70;99.90;;;;;;4997328;28;20054;-65
2023/11/01 08:11:33;;;;;;;16.20;3.08;;;12.70;99.90;;;;;;4995691;28;20488;-67
2023/11/01 08:14:00;;;;;;;14.75;2.22;;;12.60;99.90;;;;;;4998391;28;20054;-66
2023/11/01 08:16:27;;;;;;;7.03;1.75;;;12.70;99.90;;;;;;5001014;28;20535;-66
2023/11/01 08:18:54;;;;;;;6.68;1.92;;;12.60;99.90;;;;;;5000044;28;20058;-66
2023/11/01 08:21:21;;;;;;;14.07;2.30;;;12.60;99.90;;;;;;4993484;28;20102;-66
2023/11/01 08:23:48;;;;;;;11.55;2.05;;;12.60;99.90;;;;;;4992184;28;20446;-67
2023/11/01 08:26:16;;;;;;;13.95;2.35;;;12.60;99.90;;;;;;4992738;28;20047;-66
2023/11/01 08:28:42;;;;;;;12.27;2.30;;;12.50;99.90;;;;;;4986123;28;20308;-67
2023/11/01 08:31:09;;;;;;;8.95;1.70;;;12.50;99.90;;;;;;4995332;28;20046;-66
2023/11/01 08:33:36;;;;;;;11.30;3.10;;;12.50;99.90;;;;;;4995281;28;20405;-66
2023/11/01 08:36:03;;;;;;;14.52;3.13;;;12.50;99.90;;;;;;4996063;28;20502;-65
2023/11/01 08:38:31;;;;;;;10.40;2.13;;;12.50;99.90;;;;;;4988049;28;20498;-67
2023/11/01 08:40:57;;;;;;;7.65;1.70;;;12.50;99.90;;;;;;4984422;28;20097;-66
2023/11/01 08:43:24;;;;;;;5.93;1.33;;;12.40;99.90;;;;;;4997949;28;20189;-67
2023/11/01 08:45:51;;;;;;;7.95;1.33;;;12.40;99.90;;;;;;4999354;28;20089;-67
2023/11/01 08:48:18;;;;;;;10.02;1.65;;;12.40;99.90;;;;;;5001039;28;20056;-67
2023/11/01 08:50:45;;;;;;;8.27;1.27;;;12.40;99.90;;;;;;4993632;28;20042;-68
2023/11/01 08:53:12;;;;;;;5.40;1.45;;;12.40;99.90;;;;;;4983481;28;20085;-66
2023/11/01 08:55:39;;;;;;;3.92;0.80;;;12.30;99.90;;;;;;4999409;28;20047;-67
2023/11/01 08:58:06;;;;;;;2.80;0.90;;;12.30;99.90;;;;;;4993755;28;20050;-74
2023/11/01 09:00:33;;;;;;;1.83;0.88;;;12.30;99.90;;;;;;4998598;28;20058;-68
2023/11/01 09:03:13;;;;;;;3.42;1.00;;;12.30;99.90;;;;;;4984868;28;20112;-66
2023/11/01 09:05:40;;;;;;;5.75;0.98;;;12.30;99.90;;;;;;4997575;28;20045;-66
2023/11/01 09:08:07;;;;;;;6.78;0.70;;;12.20;99.90;;;;;;4995741;28;20075;-70
2023/11/01 09:10:34;;;;;;;2.95;1.20;;;12.20;99.90;;;;;;5001588;28;20376;-71
2023/11/01 09:13:01;;;;;;;5.00;0.95;;;12.20;99.90;;;;;;4995936;28;20102;-69
2023/11/01 09:15:28;;;;;;;3.70;0.65;;;12.20;99.90;;;;;;5004915;28;20453;-69
2023/11/01 09:17:54;;;;;;;6.50;0.90;;;12.20;99.90;;;;;;4993966;28;20050;-69
2023/11/01 09:20:22;;;;;;;3.13;1.42;;;12.20;99.90;;;;;;5003394;28;20104;-69
2023/11/01 09:22:49;;;;;;;3.45;1.10;;;12.10;99.90;;;;;;4990091;28;20498;-69
2023/11/01 09:25:17;;;;;;;4.60;0.95;;;12.10;99.90;;;;;;5000569;28;20495;-69
2023/11/01 09:27:44;;;;;;;4.38;0.95;;;12.10;99.90;;;;;;4994528;28;20443;-70
2023/11/01 09:30:11;;;;;;;3.85;0.80;;;12.10;99.90;;;;;;4998963;28;20046;-68
2023/11/01 09:32:38;;;;;;;2.45;0.65;;;12.10;99.90;;;;;;5000398;28;20108;-69
2023/11/01 09:35:07;;;;;;;4.72;0.85;;;12.10;99.90;;;;;;4989927;28;20061;-69
2023/11/01 09:37:34;;;;;;;4.25;0.88;;;12.20;99.90;;;;;;4990414;28;20053;-69
2023/11/01 09:40:01;;;;;;;7.00;1.67;;;12.20;99.90;;;;;;5001420;28;20058;-70
2023/11/01 09:42:28;;;;;;;5.88;1.23;;;12.20;99.90;;;;;;4998031;28;20058;-69
2023/11/01 09:44:56;;;;;;;5.60;1.15;;;12.20;99.90;;;;;;5000289;28;20054;-68
2023/11/01 09:47:25;;;;;;;7.88;0.95;;;12.30;99.90;;;;;;4984481;28;20056;-70
2023/11/01 09:49:53;;;;;;;5.72;1.15;;;12.20;99.90;;;;;;4988776;28;20526;-70
2023/11/01 09:52:21;;;;;;;3.63;1.20;;;12.30;99.90;;;;;;4999284;28;20050;-70
2023/11/01 09:54:48;;;;;;;3.72;0.98;;;12.30;99.90;;;;;;4995260;28;20131;-69
2023/11/01 09:57:16;;;;;;;6.05;1.70;;;12.30;99.90;;;;;;5001230;28;20488;-70
2023/11/01 09:59:44;;;;;;;4.68;1.00;;;12.30;99.90;;;;;;4978348;28;20089;-70
2023/11/01 10:02:11;;;;;;;4.03;1.38;;;12.40;99.90;;;;;;4996862;28;20061;-69
2023/11/01 10:04:39;;;;;;;9.05;1.38;;;12.40;99.90;;;;;;4651316;28;9999935;-69
2023/11/01 10:07:06;;;;;;;9.65;1.67;;;12.50;99.90;;;;;;4990582;28;20148;-69
2023/11/01 10:09:41;;;;;;;11.38;1.83;;;12.50;99.90;;;;;;4991931;28;20070;-69
2023/11/01 10:12:09;;;;;;;14.65;2.60;;;12.60;99.90;;;;;;5002274;28;20050;-70
2023/11/01 10:14:36;;;;;;;14.82;2.50;;;12.60;99.90;;;;;;4982569;28;20553;-69
2023/11/01 10:17:04;;;;;;;14.68;2.72;;;12.60;99.90;;;;;;5002333;28;20056;-68
2023/11/01 10:19:31;;;;;;;14.20;3.05;;;12.60;99.90;;;;;;4991503;28;20042;-68
2023/11/01 10:21:58;;;;;;;14.55;2.20;;;12.70;99.90;;;;;;5003857;28;20357;-67
2023/11/01 10:24:27;;;;;;;23.02;3.10;;;12.70;99.90;;;;;;4983612;28;20069;-69
2023/11/01 10:26:56;;;;;;;18.67;2.05;;;12.70;99.90;;;;;;5003406;28;20105;-68
2023/11/01 10:29:23;;;;;;;14.88;2.67;;;12.70;99.90;;;;;;4989272;28;20042;-68
2023/11/01 10:31:54;;;;;;;19.55;3.80;;;12.80;99.90;;;;;;4997624;28;20085;-67
2023/11/01 10:34:27;;;;;;;13.20;2.00;;;12.90;99.90;;;;;;4994399;28;20101;-69
2023/11/01 10:36:55;;;;;;;15.07;2.33;;;13.00;99.90;;;;;;4997922;28;20581;-68
2023/11/01 10:39:22;;;;;;;12.40;2.97;;;13.10;99.90;;;;;;4996665;28;20104;-68
2023/11/01 10:41:52;;;;;;;17.85;2.75;;;13.10;99.90;;;;;;5003202;28;20085;-68
2023/11/01 10:44:22;;;;;;;22.73;3.42;;;13.20;99.90;;;;;;4997646;28;20078;-68
2023/11/01 10:46:49;;;;;;;14.63;2.28;;;13.20;99.90;;;;;;4999483;28;20082;-68
2023/11/01 10:49:16;;;;;;;15.93;2.17;;;13.20;99.90;;;;;;4991775;28;20113;-68
2023/11/01 10:51:43;;;;;;;17.92;2.17;;;13.20;99.90;;;;;;4988045;28;20572;-68
2023/11/01 10:54:11;;;;;;;15.05;2.15;;;13.30;99.90;;;;;;4991216;28;20053;-68
2023/11/01 10:56:38;;;;;;;10.90;2.22;;;13.30;99.90;;;;;;5000728;28;20124;-68
2023/11/01 10:59:20;;;;;;;16.67;2.30;;;13.20;99.90;;;;;;4995320;28;20064;-67
2023/11/01 11:02:26;;;;;;;15.20;2.95;;;13.20;99.90;;;;;;4998078;28;20046;-68
2023/11/01 11:05:05;;;;;;;9.50;2.22;;;13.30;99.90;;;;;;4999560;28;20046;-68
2023/11/01 11:07:48;;;;;;;10.65;2.58;;;13.30;99.90;;;;;;4999943;28;20077;-68
2023/11/01 11:10:34;;;;;;;16.92;2.47;;;13.30;99.90;;;;;;5000596;28;20050;-68
2023/11/01 11:13:10;;;;;;;11.85;1.70;;;13.40;99.90;;;;;;5003335;28;20100;-68
2023/11/01 11:15:46;;;;;;;16.00;2.28;;;13.30;99.90;;;;;;4997023;28;20057;-68
2023/11/01 11:18:16;;;;;;;22.02;2.88;;;13.40;99.90;;;;;;4980556;28;20051;-68
2023/11/01 11:20:42;;;;;;;20.17;3.97;;;13.40;99.90;;;;;;4992948;28;20413;-68
2023/11/01 11:23:13;;;;;;;16.70;2.50;;;13.40;99.90;;;;;;5000751;28;20050;-67
2023/11/01 11:25:48;;;;;;;13.18;2.45;;;13.50;99.90;;;;;;4996340;28;20085;-67
2023/11/01 11:28:18;;;;;;;13.98;2.33;;;13.50;99.90;;;;;;5002386;28;20053;-68
2023/11/01 11:30:45;;;;;;;12.00;2.22;;;13.50;99.90;;;;;;5011712;28;20046;-68
2023/11/01 11:33:13;;;;;;;15.95;2.67;;;13.40;99.90;;;;;;4992689;28;20057;-67
2023/11/01 11:35:40;;;;;;;8.70;2.15;;;13.40;99.90;;;;;;4999727;28;20134;-67
2023/11/01 11:38:34;;;;;;;20.20;4.40;;;13.40;99.90;;;;;;4996259;28;20432;-67
2023/11/01 11:41:18;;;;;;;12.45;3.05;;;13.30;99.90;;;;;;5002174;28;20046;-68
2023/11/01 11:44:13;;;;;;;8.90;2.22;;;13.30;99.90;;;;;;5000940;28;20049;-67
2023/11/01 11:46:44;;;;;;;20.30;3.35;;;13.30;99.90;;;;;;4990613;28;20437;-67
2023/11/01 11:49:32;;;;;;;15.13;2.28;;;13.20;99.90;;;;;;4948027;28;1350721;-67
2023/11/01 11:52:04;;;;;;;19.35;3.08;;;13.30;99.90;;;;;;4992387;28;20145;-67
2023/11/01 11:54:32;;;;;;;17.17;2.83;;;13.30;99.90;;;;;;5003872;28;20131;-67
2023/11/01 11:57:04;;;;;;;16.00;3.15;;;13.40;99.90;;;;;;4999607;28;20050;-68
2023/11/01 11:59:31;;;;;;;13.07;2.17;;;13.30;99.90;;;;;;4988532;28;20109;-67
2023/11/01 12:02:18;;;;;;;11.05;1.92;;;13.40;99.90;;;;;;4992731;28;20569;-67
2023/11/01 12:04:44;;;;;;;13.88;3.97;;;13.40;99.90;;;;;;5006969;28;20046;-67
2023/11/01 12:07:21;;;;;;;15.90;2.55;;;13.40;99.90;;;;;;4993450;28;20053;-67
2023/11/01 12:09:49;;;;;;;10.18;2.28;;;13.40;99.90;;;;;;5000912;28;20050;-68
2023/11/01 12:12:15;;;;;;;8.90;1.70;;;13.30;99.90;;;;;;5002124;28;20123;-68
2023/11/01 12:14:42;;;;;;;12.23;2.10;;;13.30;99.90;;;;;;5004478;28;20492;-67
2023/11/01 12:17:09;;;;;;;7.05;1.50;;;13.30;99.90;;;;;;5001026;28;20048;-67
2023/11/01 12:19:43;;;;;;;14.73;2.47;;;13.30;99.90;;;;;;4640665;28;10000227;-67
2023/11/01 12:22:10;;;;;;;11.68;2.47;;;13.40;99.90;;;;;;4976680;28;20050;-68
2023/11/01 12:24:37;;;;;;;12.38;3.03;;;13.30;99.90;;;;;;5002783;28;20038;-67
2023/11/01 12:27:10;;;;;;;15.30;2.08;;;13.40;99.90;;;;;;4993640;28;20049;-67
2023/11/01 12:29:44;;;;;;;7.40;1.67;;;13.40;99.90;;;;;;4997464;28;20522;-67
2023/11/01 12:32:18;;;;;;;7.90;1.63;;;13.50;99.90;;;;;;4984428;28;20046;-66
2023/11/01 12:34:48;;;;;;;13.73;1.80;;;13.50;99.90;;;;;;4988281;28;20476;-67
2023/11/01 12:37:26;;;;;;;6.13;1.65;;;13.60;99.90;;;;;;5003023;28;20057;-68
2023/11/01 12:40:10;;;;;;;11.85;1.52;;;13.70;99.90;;;;;;5004781;28;20050;-68
2023/11/01 12:42:59;;;;;;;11.88;2.13;;;13.70;99.90;;;;;;4983977;28;20140;-68
2023/11/01 12:45:25;;;;;;;15.23;1.98;;;13.80;99.90;;;;;;4996215;28;20086;-67